sensor_id;sensor_type;location;lat;lon;timestamp;temperature;humidity
33761;DHT22;20084;47.912;19.044;2023-09-12T00:01:08;16.80;99.90
33761;DHT22;20084;47.912;19.044;2023-09-12T00:03:34;16.90;99.90
33761;DHT22;20084;47.912;19.044;2023-09-12T00:06:00;16.90;99.90
33761;DHT22;20084;47.912;19.044;2023-09-12T00:08:26;16.80;99.90
33761;DHT22;20084;47.912;19.044;2023-09-12T00:10:59;16.90;99.90
33761;DHT22;20084;47.912;19.044;2023-09-12T00:13:24;16.80;99.90
33761;DHT22;20084;47.912;19.044;2023-09-12T00:15:50;16.80;99.90
33761;DHT22;20084;47.912;19.044;2023-09-12T00:18:15;16.70;99.90
33761;DHT22;20084;47.912;19.044;2023-09-12T00:20:41;16.70;99.90
33761;DHT22;20084;47.912;19.044;2023-09-12T00:23:06;16.80;99.90
33761;DHT22;20084;47.912;19.044;2023-09-12T00:25:32;16.80;99.90
33761;DHT22;20084;47.912;19.044;2023-09-12T00:27:57;16.60;99.90
33761;DHT22;20084;47.912;19.044;2023-09-12T00:30:23;16.50;99.90
33761;DHT22;20084;47.912;19.044;2023-09-12T00:32:49;16.50;99.90
33761;DHT22;20084;47.912;19.044;2023-09-12T00:35:14;16.40;99.90
33761;DHT22;20084;47.912;19.044;2023-09-12T00:37:40;16.30;99.90
33761;DHT22;20084;47.912;19.044;2023-09-12T00:40:06;16.10;99.90
33761;DHT22;20084;47.912;19.044;2023-09-12T00:42:32;16.10;99.90
33761;DHT22;20084;47.912;19.044;2023-09-12T00:44:57;16.20;99.90
33761;DHT22;20084;47.912;19.044;2023-09-12T00:47:23;16.20;99.90
33761;DHT22;20084;47.912;19.044;2023-09-12T00:49:49;16.20;99.90
33761;DHT22;20084;47.912;19.044;2023-09-12T00:52:15;16.20;99.90
33761;DHT22;20084;47.912;19.044;2023-09-12T00:54:42;16.30;99.90
33761;DHT22;20084;47.912;19.044;2023-09-12T00:57:07;16.30;99.90
33761;DHT22;20084;47.912;19.044;2023-09-12T00:59:33;16.30;99.90
33761;DHT22;20084;47.912;19.044;2023-09-12T01:01:59;16.40;99.90
33761;DHT22;20084;47.912;19.044;2023-09-12T01:04:25;16.40;99.90
33761;DHT22;20084;47.912;19.044;2023-09-12T01:06:51;16.40;99.90
33761;DHT22;20084;47.912;19.044;2023-09-12T01:09:17;16.40;99.90
33761;DHT22;20084;47.912;19.044;2023-09-12T01:11:42;16.20;99.90
33761;DHT22;20084;47.912;19.044;2023-09-12T01:14:08;16.00;99.90
33761;DHT22;20084;47.912;19.044;2023-09-12T01:16:34;15.90;99.90
33761;DHT22;20084;47.912;19.044;2023-09-12T01:18:59;16.00;99.90
33761;DHT22;20084;47.912;19.044;2023-09-12T01:29:19;16.20;99.90
33761;DHT22;20084;47.912;19.044;2023-09-12T01:31:46;16.20;99.90
33761;DHT22;20084;47.912;19.044;2023-09-12T01:34:12;16.30;99.90
33761;DHT22;20084;47.912;19.044;2023-09-12T01:36:39;16.30;99.90
33761;DHT22;20084;47.912;19.044;2023-09-12T01:39:04;16.30;99.90
33761;DHT22;20084;47.912;19.044;2023-09-12T01:41:31;16.20;99.90
33761;DHT22;20084;47.912;19.044;2023-09-12T01:43:57;16.30;99.90
33761;DHT22;20084;47.912;19.044;2023-09-12T01:46:24;16.20;99.90
33761;DHT22;20084;47.912;19.044;2023-09-12T01:48:50;16.10;99.90
33761;DHT22;20084;47.912;19.044;2023-09-12T01:51:17;15.90;99.90
33761;DHT22;20084;47.912;19.044;2023-09-12T01:53:44;15.90;99.90
33761;DHT22;20084;47.912;19.044;2023-09-12T01:56:10;15.90;99.90
33761;DHT22;20084;47.912;19.044;2023-09-12T01:58:36;16.00;99.90
33761;DHT22;20084;47.912;19.044;2023-09-12T02:01:02;16.00;99.90
33761;DHT22;20084;47.912;19.044;2023-09-12T02:03:27;16.00;99.90
33761;DHT22;20084;47.912;19.044;2023-09-12T02:05:53;16.00;99.90
33761;DHT22;20084;47.912;19.044;2023-09-12T02:08:18;16.00;99.90
33761;DHT22;20084;47.912;19.044;2023-09-12T02:10:44;16.00;99.90
33761;DHT22;20084;47.912;19.044;2023-09-12T02:13:09;16.00;99.90
33761;DHT22;20084;47.912;19.044;2023-09-12T02:15:35;15.90;99.90
33761;DHT22;20084;47.912;19.044;2023-09-12T02:18:00;15.90;99.90
33761;DHT22;20084;47.912;19.044;2023-09-12T02:20:26;15.90;99.90
33761;DHT22;20084;47.912;19.044;2023-09-12T02:22:51;15.90;99.90
33761;DHT22;20084;47.912;19.044;2023-09-12T02:25:17;16.00;99.90
33761;DHT22;20084;47.912;19.044;2023-09-12T02:27:43;15.90;99.90
33761;DHT22;20084;47.912;19.044;2023-09-12T02:30:08;15.90;99.90
33761;DHT22;20084;47.912;19.044;2023-09-12T02:32:34;15.90;99.90
33761;DHT22;20084;47.912;19.044;2023-09-12T02:35:00;15.80;99.90
33761;DHT22;20084;47.912;19.044;2023-09-12T02:37:25;15.80;99.90
33761;DHT22;20084;47.912;19.044;2023-09-12T02:39:51;15.80;99.90
33761;DHT22;20084;47.912;19.044;2023-09-12T02:42:16;15.80;99.90
33761;DHT22;20084;47.912;19.044;2023-09-12T02:44:42;15.70;99.90
33761;DHT22;20084;47.912;19.044;2023-09-12T02:47:07;15.70;99.90
33761;DHT22;20084;47.912;19.044;2023-09-12T02:49:33;15.70;99.90
33761;DHT22;20084;47.912;19.044;2023-09-12T02:51:59;15.70;99.90
33761;DHT22;20084;47.912;19.044;2023-09-12T02:54:24;15.70;99.90
33761;DHT22;20084;47.912;19.044;2023-09-12T02:56:50;15.70;99.90
33761;DHT22;20084;47.912;19.044;2023-09-12T02:59:15;15.70;99.90
33761;DHT22;20084;47.912;19.044;2023-09-12T03:01:41;15.70;99.90
33761;DHT22;20084;47.912;19.044;2023-09-12T03:04:06;15.70;99.90
33761;DHT22;20084;47.912;19.044;2023-09-12T03:06:32;15.70;99.90
33761;DHT22;20084;47.912;19.044;2023-09-12T03:08:58;15.70;99.90
33761;DHT22;20084;47.912;19.044;2023-09-12T03:11:25;15.70;99.90
33761;DHT22;20084;47.912;19.044;2023-09-12T03:13:51;15.60;99.90
33761;DHT22;20084;47.912;19.044;2023-09-12T03:16:16;15.60;99.90
33761;DHT22;20084;47.912;19.044;2023-09-12T03:18:42;15.50;99.90
33761;DHT22;20084;47.912;19.044;2023-09-12T03:21:07;15.40;99.90
33761;DHT22;20084;47.912;19.044;2023-09-12T03:23:33;15.40;99.90
33761;DHT22;20084;47.912;19.044;2023-09-12T03:26:05;15.50;99.90
33761;DHT22;20084;47.912;19.044;2023-09-12T03:28:30;15.40;99.90
33761;DHT22;20084;47.912;19.044;2023-09-12T03:31:03;15.40;99.90
33761;DHT22;20084;47.912;19.044;2023-09-12T03:33:29;15.40;99.90
33761;DHT22;20084;47.912;19.044;2023-09-12T03:35:55;15.40;99.90
33761;DHT22;20084;47.912;19.044;2023-09-12T03:38:20;15.40;99.90
33761;DHT22;20084;47.912;19.044;2023-09-12T03:40:46;15.40;99.90
33761;DHT22;20084;47.912;19.044;2023-09-12T03:43:11;15.40;99.90
33761;DHT22;20084;47.912;19.044;2023-09-12T03:45:37;15.40;99.90
33761;DHT22;20084;47.912;19.044;2023-09-12T03:48:02;15.40;99.90
33761;DHT22;20084;47.912;19.044;2023-09-12T03:50:28;15.30;99.90
33761;DHT22;20084;47.912;19.044;2023-09-12T03:52:54;15.30;99.90
33761;DHT22;20084;47.912;19.044;2023-09-12T03:55:19;15.30;99.90
33761;DHT22;20084;47.912;19.044;2023-09-12T03:57:45;15.20;99.90
33761;DHT22;20084;47.912;19.044;2023-09-12T04:00:10;15.20;99.90
33761;DHT22;20084;47.912;19.044;2023-09-12T04:02:36;15.10;99.90
33761;DHT22;20084;47.912;19.044;2023-09-12T04:05:01;15.10;99.90
33761;DHT22;20084;47.912;19.044;2023-09-12T04:07:27;15.10;99.90
33761;DHT22;20084;47.912;19.044;2023-09-12T04:09:53;15.10;99.90
33761;DHT22;20084;47.912;19.044;2023-09-12T04:12:18;15.10;99.90
33761;DHT22;20084;47.912;19.044;2023-09-12T04:14:44;15.10;99.90
33761;DHT22;20084;47.912;19.044;2023-09-12T04:17:09;15.10;99.90
33761;DHT22;20084;47.912;19.044;2023-09-12T04:19:35;15.10;99.90
33761;DHT22;20084;47.912;19.044;2023-09-12T04:22:00;15.10;99.90
33761;DHT22;20084;47.912;19.044;2023-09-12T04:24:26;15.10;99.90
33761;DHT22;20084;47.912;19.044;2023-09-12T04:26:51;15.20;99.90
33761;DHT22;20084;47.912;19.044;2023-09-12T04:29:17;15.10;99.90
33761;DHT22;20084;47.912;19.044;2023-09-12T04:31:42;15.20;99.90
33761;DHT22;20084;47.912;19.044;2023-09-12T04:34:08;15.20;99.90
33761;DHT22;20084;47.912;19.044;2023-09-12T04:36:33;15.20;99.90
33761;DHT22;20084;47.912;19.044;2023-09-12T04:38:59;15.20;99.90
33761;DHT22;20084;47.912;19.044;2023-09-12T04:41:25;15.30;99.90
33761;DHT22;20084;47.912;19.044;2023-09-12T04:43:51;15.30;99.90
33761;DHT22;20084;47.912;19.044;2023-09-12T04:46:16;15.40;99.90
33761;DHT22;20084;47.912;19.044;2023-09-12T04:48:42;15.40;99.90
33761;DHT22;20084;47.912;19.044;2023-09-12T04:51:08;15.30;99.90
33761;DHT22;20084;47.912;19.044;2023-09-12T04:53:34;15.30;99.90
33761;DHT22;20084;47.912;19.044;2023-09-12T04:56:03;15.30;99.90
33761;DHT22;20084;47.912;19.044;2023-09-12T04:58:31;15.30;99.90
33761;DHT22;20084;47.912;19.044;2023-09-12T05:00:57;15.40;99.90
33761;DHT22;20084;47.912;19.044;2023-09-12T05:03:23;15.60;99.90
33761;DHT22;20084;47.912;19.044;2023-09-12T05:05:48;15.60;99.90
33761;DHT22;20084;47.912;19.044;2023-09-12T05:08:15;15.80;99.90
33761;DHT22;20084;47.912;19.044;2023-09-12T05:10:40;15.90;99.90
33761;DHT22;20084;47.912;19.044;2023-09-12T05:13:06;16.00;99.90
33761;DHT22;20084;47.912;19.044;2023-09-12T05:15:31;16.00;99.90
33761;DHT22;20084;47.912;19.044;2023-09-12T05:17:57;16.00;99.90
33761;DHT22;20084;47.912;19.044;2023-09-12T05:20:22;16.10;99.90
33761;DHT22;20084;47.912;19.044;2023-09-12T05:22:48;16.10;99.90
33761;DHT22;20084;47.912;19.044;2023-09-12T05:25:14;16.20;99.90
33761;DHT22;20084;47.912;19.044;2023-09-12T05:27:39;16.20;99.90
33761;DHT22;20084;47.912;19.044;2023-09-12T05:30:05;16.30;99.90
33761;DHT22;20084;47.912;19.044;2023-09-12T05:32:30;16.40;99.90
33761;DHT22;20084;47.912;19.044;2023-09-12T05:34:56;16.50;99.90
33761;DHT22;20084;47.912;19.044;2023-09-12T05:37:22;16.70;99.90
33761;DHT22;20084;47.912;19.044;2023-09-12T05:39:47;16.70;99.90
33761;DHT22;20084;47.912;19.044;2023-09-12T05:42:12;16.90;99.90
33761;DHT22;20084;47.912;19.044;2023-09-12T05:44:41;17.00;99.90
33761;DHT22;20084;47.912;19.044;2023-09-12T05:47:07;17.20;99.90
33761;DHT22;20084;47.912;19.044;2023-09-12T05:49:33;17.40;99.90
33761;DHT22;20084;47.912;19.044;2023-09-12T05:51:59;17.50;99.90
33761;DHT22;20084;47.912;19.044;2023-09-12T05:54:24;17.70;99.90
33761;DHT22;20084;47.912;19.044;2023-09-12T05:56:51;17.90;99.90
33761;DHT22;20084;47.912;19.044;2023-09-12T05:59:18;18.00;99.90
33761;DHT22;20084;47.912;19.044;2023-09-12T06:01:43;18.10;99.90
33761;DHT22;20084;47.912;19.044;2023-09-12T06:04:09;18.20;99.90
33761;DHT22;20084;47.912;19.044;2023-09-12T06:06:34;18.30;99.90
33761;DHT22;20084;47.912;19.044;2023-09-12T06:09:00;18.40;99.90
33761;DHT22;20084;47.912;19.044;2023-09-12T06:11:25;18.40;99.90
33761;DHT22;20084;47.912;19.044;2023-09-12T06:13:51;18.50;99.90
33761;DHT22;20084;47.912;19.044;2023-09-12T06:16:16;18.60;99.90
33761;DHT22;20084;47.912;19.044;2023-09-12T06:18:42;18.70;99.90
33761;DHT22;20084;47.912;19.044;2023-09-12T06:21:07;18.80;99.90
33761;DHT22;20084;47.912;19.044;2023-09-12T06:23:34;18.90;99.90
33761;DHT22;20084;47.912;19.044;2023-09-12T06:25:59;19.00;99.90
33761;DHT22;20084;47.912;19.044;2023-09-12T06:28:26;19.20;99.90
33761;DHT22;20084;47.912;19.044;2023-09-12T06:30:51;19.20;99.90
33761;DHT22;20084;47.912;19.044;2023-09-12T06:33:17;19.30;99.90
33761;DHT22;20084;47.912;19.044;2023-09-12T06:35:42;19.40;99.90
33761;DHT22;20084;47.912;19.044;2023-09-12T06:38:08;19.50;99.90
33761;DHT22;20084;47.912;19.044;2023-09-12T06:40:33;19.70;99.90
33761;DHT22;20084;47.912;19.044;2023-09-12T06:42:59;19.70;99.90
33761;DHT22;20084;47.912;19.044;2023-09-12T06:45:24;19.80;99.90
33761;DHT22;20084;47.912;19.044;2023-09-12T06:47:50;20.00;99.90
33761;DHT22;20084;47.912;19.044;2023-09-12T06:50:15;20.10;99.90
33761;DHT22;20084;47.912;19.044;2023-09-12T06:52:41;20.30;99.90
33761;DHT22;20084;47.912;19.044;2023-09-12T06:55:07;20.40;99.90
33761;DHT22;20084;47.912;19.044;2023-09-12T06:57:32;20.50;99.90
33761;DHT22;20084;47.912;19.044;2023-09-12T06:59:58;20.60;99.90
33761;DHT22;20084;47.912;19.044;2023-09-12T07:02:23;20.70;99.90
33761;DHT22;20084;47.912;19.044;2023-09-12T07:04:49;20.70;99.90
33761;DHT22;20084;47.912;19.044;2023-09-12T07:07:14;20.80;99.90
33761;DHT22;20084;47.912;19.044;2023-09-12T07:09:40;20.90;99.90
33761;DHT22;20084;47.912;19.044;2023-09-12T07:12:05;21.10;99.90
33761;DHT22;20084;47.912;19.044;2023-09-12T07:14:31;21.30;99.90
33761;DHT22;20084;47.912;19.044;2023-09-12T07:16:56;21.50;99.90
33761;DHT22;20084;47.912;19.044;2023-09-12T07:19:22;21.70;99.90
33761;DHT22;20084;47.912;19.044;2023-09-12T07:21:47;21.80;99.90
33761;DHT22;20084;47.912;19.044;2023-09-12T07:24:13;21.90;99.90
33761;DHT22;20084;47.912;19.044;2023-09-12T07:26:38;22.00;99.90
33761;DHT22;20084;47.912;19.044;2023-09-12T07:29:04;22.10;99.90
33761;DHT22;20084;47.912;19.044;2023-09-12T07:31:31;22.30;99.90
33761;DHT22;20084;47.912;19.044;2023-09-12T07:33:56;22.40;99.90
33761;DHT22;20084;47.912;19.044;2023-09-12T07:36:22;22.50;99.90
33761;DHT22;20084;47.912;19.044;2023-09-12T07:38:47;22.70;99.90
33761;DHT22;20084;47.912;19.044;2023-09-12T07:41:13;22.90;99.90
33761;DHT22;20084;47.912;19.044;2023-09-12T07:43:39;23.00;99.90
33761;DHT22;20084;47.912;19.044;2023-09-12T07:46:05;23.00;99.90
33761;DHT22;20084;47.912;19.044;2023-09-12T07:48:31;23.10;99.90
33761;DHT22;20084;47.912;19.044;2023-09-12T07:50:56;23.20;99.90
33761;DHT22;20084;47.912;19.044;2023-09-12T07:53:22;23.40;99.90
33761;DHT22;20084;47.912;19.044;2023-09-12T07:55:48;23.60;99.90
33761;DHT22;20084;47.912;19.044;2023-09-12T07:58:14;23.70;99.90
33761;DHT22;20084;47.912;19.044;2023-09-12T08:00:40;23.90;99.90
33761;DHT22;20084;47.912;19.044;2023-09-12T08:03:06;23.90;99.90
33761;DHT22;20084;47.912;19.044;2023-09-12T08:05:31;23.90;99.90
33761;DHT22;20084;47.912;19.044;2023-09-12T08:07:57;23.90;99.90
33761;DHT22;20084;47.912;19.044;2023-09-12T08:10:22;24.00;99.90
33761;DHT22;20084;47.912;19.044;2023-09-12T08:12:48;24.10;99.90
33761;DHT22;20084;47.912;19.044;2023-09-12T08:15:14;24.20;99.90
33761;DHT22;20084;47.912;19.044;2023-09-12T08:17:39;24.20;99.90
33761;DHT22;20084;47.912;19.044;2023-09-12T08:20:05;24.30;99.90
33761;DHT22;20084;47.912;19.044;2023-09-12T08:22:31;24.50;99.90
33761;DHT22;20084;47.912;19.044;2023-09-12T08:24:56;24.60;99.90
33761;DHT22;20084;47.912;19.044;2023-09-12T08:27:22;24.60;99.90
33761;DHT22;20084;47.912;19.044;2023-09-12T08:29:48;24.70;99.90
33761;DHT22;20084;47.912;19.044;2023-09-12T08:32:14;24.90;99.90
33761;DHT22;20084;47.912;19.044;2023-09-12T08:34:39;25.10;99.90
33761;DHT22;20084;47.912;19.044;2023-09-12T08:37:05;25.20;99.90
33761;DHT22;20084;47.912;19.044;2023-09-12T08:39:41;25.40;99.90
33761;DHT22;20084;47.912;19.044;2023-09-12T08:42:07;25.50;99.90
33761;DHT22;20084;47.912;19.044;2023-09-12T08:44:36;25.60;99.90
33761;DHT22;20084;47.912;19.044;2023-09-12T08:47:02;25.80;99.90
33761;DHT22;20084;47.912;19.044;2023-09-12T08:49:31;25.80;99.90
33761;DHT22;20084;47.912;19.044;2023-09-12T08:51:58;25.90;99.90
33761;DHT22;20084;47.912;19.044;2023-09-12T08:54:24;25.90;99.90
33761;DHT22;20084;47.912;19.044;2023-09-12T08:56:49;26.10;99.90
33761;DHT22;20084;47.912;19.044;2023-09-12T08:59:15;26.00;99.90
33761;DHT22;20084;47.912;19.044;2023-09-12T09:01:41;26.10;99.90
33761;DHT22;20084;47.912;19.044;2023-09-12T09:04:07;26.10;99.90
33761;DHT22;20084;47.912;19.044;2023-09-12T09:06:33;26.30;99.90
33761;DHT22;20084;47.912;19.044;2023-09-12T09:09:04;26.30;99.90
33761;DHT22;20084;47.912;19.044;2023-09-12T09:11:30;26.40;99.90
33761;DHT22;20084;47.912;19.044;2023-09-12T09:13:56;26.30;99.90
33761;DHT22;20084;47.912;19.044;2023-09-12T09:16:21;26.30;99.90
33761;DHT22;20084;47.912;19.044;2023-09-12T09:21:17;26.60;99.90
33761;DHT22;20084;47.912;19.044;2023-09-12T09:23:46;26.70;99.90
33761;DHT22;20084;47.912;19.044;2023-09-12T09:26:12;26.80;99.90
33761;DHT22;20084;47.912;19.044;2023-09-12T09:28:38;26.90;99.90
33761;DHT22;20084;47.912;19.044;2023-09-12T09:31:04;27.00;99.90
33761;DHT22;20084;47.912;19.044;2023-09-12T09:33:34;27.10;99.90
33761;DHT22;20084;47.912;19.044;2023-09-12T09:36:03;27.10;99.90
33761;DHT22;20084;47.912;19.044;2023-09-12T09:38:29;27.20;99.90
33761;DHT22;20084;47.912;19.044;2023-09-12T09:40:55;27.20;99.90
33761;DHT22;20084;47.912;19.044;2023-09-12T09:43:21;27.40;99.90
33761;DHT22;20084;47.912;19.044;2023-09-12T09:45:47;27.50;99.90
33761;DHT22;20084;47.912;19.044;2023-09-12T09:48:22;27.60;99.90
33761;DHT22;20084;47.912;19.044;2023-09-12T09:50:48;27.70;99.90
33761;DHT22;20084;47.912;19.044;2023-09-12T09:53:14;27.80;99.90
33761;DHT22;20084;47.912;19.044;2023-09-12T09:55:39;27.90;99.90
33761;DHT22;20084;47.912;19.044;2023-09-12T09:58:06;28.00;99.90
33761;DHT22;20084;47.912;19.044;2023-09-12T10:00:33;28.10;99.90
33761;DHT22;20084;47.912;19.044;2023-09-12T10:02:59;28.20;99.90
33761;DHT22;20084;47.912;19.044;2023-09-12T10:05:25;28.30;99.90
33761;DHT22;20084;47.912;19.044;2023-09-12T10:07:52;28.30;99.90
33761;DHT22;20084;47.912;19.044;2023-09-12T10:10:19;28.40;99.90
33761;DHT22;20084;47.912;19.044;2023-09-12T10:13:03;28.50;98.80
33761;DHT22;20084;47.912;19.044;2023-09-12T10:15:29;28.50;98.10
33761;DHT22;20084;47.912;19.044;2023-09-12T10:17:59;28.40;96.50
33761;DHT22;20084;47.912;19.044;2023-09-12T10:20:27;28.30;96.70
33761;DHT22;20084;47.912;19.044;2023-09-12T10:23:17;28.40;96.30
33761;DHT22;20084;47.912;19.044;2023-09-12T10:25:40;28.40;95.60
33761;DHT22;20084;47.912;19.044;2023-09-12T10:28:08;28.50;95.30
33761;DHT22;20084;47.912;19.044;2023-09-12T10:30:34;28.40;94.80
33761;DHT22;20084;47.912;19.044;2023-09-12T10:33:01;28.40;94.60
33761;DHT22;20084;47.912;19.044;2023-09-12T10:35:27;28.40;95.20
33761;DHT22;20084;47.912;19.044;2023-09-12T10:37:53;28.60;95.30
33761;DHT22;20084;47.912;19.044;2023-09-12T10:40:19;28.80;95.90
33761;DHT22;20084;47.912;19.044;2023-09-12T10:42:45;28.90;93.50
33761;DHT22;20084;47.912;19.044;2023-09-12T10:45:12;29.00;92.40
33761;DHT22;20084;47.912;19.044;2023-09-12T10:47:38;28.90;92.50
33761;DHT22;20084;47.912;19.044;2023-09-12T10:50:04;29.00;92.10
33761;DHT22;20084;47.912;19.044;2023-09-12T10:52:30;29.00;91.30
33761;DHT22;20084;47.912;19.044;2023-09-12T10:54:56;29.10;91.00
33761;DHT22;20084;47.912;19.044;2023-09-12T10:57:21;29.20;90.60
33761;DHT22;20084;47.912;19.044;2023-09-12T11:04:56;29.40;88.10
33761;DHT22;20084;47.912;19.044;2023-09-12T11:12:41;29.40;87.70
33761;DHT22;20084;47.912;19.044;2023-09-12T11:15:07;29.50;88.10
33761;DHT22;20084;47.912;19.044;2023-09-12T11:17:37;29.50;89.80
33761;DHT22;20084;47.912;19.044;2023-09-12T11:20:02;29.50;88.80
33761;DHT22;20084;47.912;19.044;2023-09-12T11:22:36;29.60;86.60
33761;DHT22;20084;47.912;19.044;2023-09-12T11:25:02;29.70;86.00
33761;DHT22;20084;47.912;19.044;2023-09-12T11:27:31;29.70;86.50
33761;DHT22;20084;47.912;19.044;2023-09-12T11:30:03;29.80;86.10
33761;DHT22;20084;47.912;19.044;2023-09-12T11:32:31;29.80;87.60
33761;DHT22;20084;47.912;19.044;2023-09-12T11:34:57;29.80;85.70
33761;DHT22;20084;47.912;19.044;2023-09-12T11:37:27;29.90;84.70
33761;DHT22;20084;47.912;19.044;2023-09-12T11:39:54;29.90;85.00
33761;DHT22;20084;47.912;19.044;2023-09-12T11:42:19;29.90;83.00
33761;DHT22;20084;47.912;19.044;2023-09-12T11:44:48;29.90;80.30
33761;DHT22;20084;47.912;19.044;2023-09-12T11:47:13;29.70;80.90
33761;DHT22;20084;47.912;19.044;2023-09-12T11:49:40;29.60;81.60
33761;DHT22;20084;47.912;19.044;2023-09-12T11:52:09;29.50;79.20
33761;DHT22;20084;47.912;19.044;2023-09-12T11:54:36;29.50;79.80
33761;DHT22;20084;47.912;19.044;2023-09-12T11:57:02;29.50;80.20
33761;DHT22;20084;47.912;19.044;2023-09-12T11:59:30;29.50;80.40
33761;DHT22;20084;47.912;19.044;2023-09-12T12:01:56;29.40;79.60
33761;DHT22;20084;47.912;19.044;2023-09-12T12:04:22;29.40;79.80
33761;DHT22;20084;47.912;19.044;2023-09-12T12:06:51;29.50;80.20
33761;DHT22;20084;47.912;19.044;2023-09-12T12:09:17;29.50;78.10
33761;DHT22;20084;47.912;19.044;2023-09-12T12:11:45;29.50;78.20
33761;DHT22;20084;47.912;19.044;2023-09-12T12:14:15;29.40;78.50
33761;DHT22;20084;47.912;19.044;2023-09-12T12:16:41;29.40;79.20
33761;DHT22;20084;47.912;19.044;2023-09-12T12:19:08;29.50;77.70
33761;DHT22;20084;47.912;19.044;2023-09-12T12:21:34;29.50;77.70
33761;DHT22;20084;47.912;19.044;2023-09-12T12:24:02;29.50;77.90
33761;DHT22;20084;47.912;19.044;2023-09-12T12:26:29;29.50;78.00
33761;DHT22;20084;47.912;19.044;2023-09-12T12:28:55;29.50;76.10
33761;DHT22;20084;47.912;19.044;2023-09-12T12:31:20;29.40;76.00
33761;DHT22;20084;47.912;19.044;2023-09-12T12:33:47;29.40;78.60
33761;DHT22;20084;47.912;19.044;2023-09-12T12:36:13;29.50;77.60
33761;DHT22;20084;47.912;19.044;2023-09-12T12:38:38;29.70;75.40
33761;DHT22;20084;47.912;19.044;2023-09-12T12:41:04;29.60;73.60
33761;DHT22;20084;47.912;19.044;2023-09-12T12:43:30;29.70;73.90
33761;DHT22;20084;47.912;19.044;2023-09-12T12:45:56;29.70;74.30
33761;DHT22;20084;47.912;19.044;2023-09-12T12:48:32;29.60;74.10
33761;DHT22;20084;47.912;19.044;2023-09-12T12:50:58;29.70;73.20
33761;DHT22;20084;47.912;19.044;2023-09-12T12:53:36;29.60;72.90
33761;DHT22;20084;47.912;19.044;2023-09-12T12:56:02;29.60;72.40
33761;DHT22;20084;47.912;19.044;2023-09-12T12:58:28;29.60;71.90
33761;DHT22;20084;47.912;19.044;2023-09-12T13:00:53;29.80;71.90
33761;DHT22;20084;47.912;19.044;2023-09-12T13:03:19;29.80;71.60
33761;DHT22;20084;47.912;19.044;2023-09-12T13:05:45;29.80;71.40
33761;DHT22;20084;47.912;19.044;2023-09-12T13:08:10;29.70;71.40
33761;DHT22;20084;47.912;19.044;2023-09-12T13:10:35;29.70;70.20
33761;DHT22;20084;47.912;19.044;2023-09-12T13:13:02;29.70;71.30
33761;DHT22;20084;47.912;19.044;2023-09-12T13:15:29;29.70;70.70
33761;DHT22;20084;47.912;19.044;2023-09-12T13:17:55;29.80;69.80
33761;DHT22;20084;47.912;19.044;2023-09-12T13:20:20;29.80;70.30
33761;DHT22;20084;47.912;19.044;2023-09-12T13:22:46;29.80;69.10
33761;DHT22;20084;47.912;19.044;2023-09-12T13:25:11;29.80;68.80
33761;DHT22;20084;47.912;19.044;2023-09-12T13:27:37;29.80;70.00
33761;DHT22;20084;47.912;19.044;2023-09-12T13:30:02;29.90;69.90
33761;DHT22;20084;47.912;19.044;2023-09-12T13:32:29;30.00;69.80
33761;DHT22;20084;47.912;19.044;2023-09-12T13:34:55;30.00;69.60
33761;DHT22;20084;47.912;19.044;2023-09-12T13:37:20;30.00;69.20
33761;DHT22;20084;47.912;19.044;2023-09-12T13:39:46;30.00;69.30
33761;DHT22;20084;47.912;19.044;2023-09-12T13:42:14;30.10;68.60
33761;DHT22;20084;47.912;19.044;2023-09-12T13:44:44;30.10;70.00
33761;DHT22;20084;47.912;19.044;2023-09-12T13:47:09;30.20;68.20
33761;DHT22;20084;47.912;19.044;2023-09-12T13:49:35;30.20;68.20
33761;DHT22;20084;47.912;19.044;2023-09-12T13:52:00;30.20;68.80
33761;DHT22;20084;47.912;19.044;2023-09-12T13:54:26;30.30;67.80
33761;DHT22;20084;47.912;19.044;2023-09-12T13:56:51;30.30;67.30
33761;DHT22;20084;47.912;19.044;2023-09-12T13:59:17;30.30;68.10
33761;DHT22;20084;47.912;19.044;2023-09-12T14:01:46;30.30;67.00
33761;DHT22;20084;47.912;19.044;2023-09-12T14:04:11;30.50;67.80
33761;DHT22;20084;47.912;19.044;2023-09-12T14:06:38;30.60;66.40
33761;DHT22;20084;47.912;19.044;2023-09-12T14:09:04;30.60;65.80
33761;DHT22;20084;47.912;19.044;2023-09-12T14:11:30;30.60;65.60
33761;DHT22;20084;47.912;19.044;2023-09-12T14:13:56;30.60;65.80
33761;DHT22;20084;47.912;19.044;2023-09-12T14:16:21;30.60;66.20
33761;DHT22;20084;47.912;19.044;2023-09-12T14:18:47;30.70;65.70
33761;DHT22;20084;47.912;19.044;2023-09-12T14:21:13;30.70;66.00
33761;DHT22;20084;47.912;19.044;2023-09-12T14:23:38;30.70;64.50
33761;DHT22;20084;47.912;19.044;2023-09-12T14:26:04;30.60;65.40
33761;DHT22;20084;47.912;19.044;2023-09-12T14:28:30;30.60;64.80
33761;DHT22;20084;47.912;19.044;2023-09-12T14:30:57;30.60;64.80
33761;DHT22;20084;47.912;19.044;2023-09-12T14:33:23;30.60;64.20
33761;DHT22;20084;47.912;19.044;2023-09-12T14:35:52;30.50;64.70
33761;DHT22;20084;47.912;19.044;2023-09-12T14:38:18;30.60;65.40
33761;DHT22;20084;47.912;19.044;2023-09-12T14:40:44;30.60;63.80
33761;DHT22;20084;47.912;19.044;2023-09-12T14:43:10;30.60;64.60
33761;DHT22;20084;47.912;19.044;2023-09-12T14:45:35;30.60;65.40
33761;DHT22;20084;47.912;19.044;2023-09-12T14:48:01;30.60;64.70
33761;DHT22;20084;47.912;19.044;2023-09-12T14:50:27;30.60;64.30
33761;DHT22;20084;47.912;19.044;2023-09-12T14:52:55;30.50;64.30
33761;DHT22;20084;47.912;19.044;2023-09-12T14:55:21;30.40;64.60
33761;DHT22;20084;47.912;19.044;2023-09-12T14:57:47;30.30;64.50
33761;DHT22;20084;47.912;19.044;2023-09-12T15:00:14;30.20;63.80
33761;DHT22;20084;47.912;19.044;2023-09-12T15:02:40;30.10;64.50
33761;DHT22;20084;47.912;19.044;2023-09-12T15:05:07;30.00;64.80
33761;DHT22;20084;47.912;19.044;2023-09-12T15:07:34;30.00;65.30
33761;DHT22;20084;47.912;19.044;2023-09-12T15:10:03;30.00;64.40
33761;DHT22;20084;47.912;19.044;2023-09-12T15:12:29;29.90;65.60
33761;DHT22;20084;47.912;19.044;2023-09-12T15:14:55;30.00;64.60
33761;DHT22;20084;47.912;19.044;2023-09-12T15:17:21;30.00;65.10
33761;DHT22;20084;47.912;19.044;2023-09-12T15:19:46;30.00;64.90
33761;DHT22;20084;47.912;19.044;2023-09-12T15:22:12;29.90;64.60
33761;DHT22;20084;47.912;19.044;2023-09-12T15:24:39;29.90;65.70
33761;DHT22;20084;47.912;19.044;2023-09-12T15:27:05;29.90;65.20
33761;DHT22;20084;47.912;19.044;2023-09-12T15:29:31;29.80;66.20